sensor_id;sensor_type;location;lat;lon;timestamp;temperature;humidity
14140;DHT22;7150;53.514;9.988;2023-08-20T00:02:18;22.80;99.90
14140;DHT22;7150;53.514;9.988;2023-08-20T00:04:46;22.80;99.90
14140;DHT22;7150;53.514;9.988;2023-08-20T00:07:13;22.80;99.90
14140;DHT22;7150;53.514;9.988;2023-08-20T00:09:41;22.70;99.90
14140;DHT22;7150;53.514;9.988;2023-08-20T00:12:06;22.70;99.90
14140;DHT22;7150;53.514;9.988;2023-08-20T00:14:58;22.60;99.90
14140;DHT22;7150;53.514;9.988;2023-08-20T00:17:24;22.70;99.90
14140;DHT22;7150;53.514;9.988;2023-08-20T00:19:53;22.60;99.90
14140;DHT22;7150;53.514;9.988;2023-08-20T00:22:19;22.60;99.90
14140;DHT22;7150;53.514;9.988;2023-08-20T00:24:46;22.60;99.90
14140;DHT22;7150;53.514;9.988;2023-08-20T00:27:12;22.60;99.90
14140;DHT22;7150;53.514;9.988;2023-08-20T00:29:38;22.60;99.90
14140;DHT22;7150;53.514;9.988;2023-08-20T00:32:03;22.60;99.90
14140;DHT22;7150;53.514;9.988;2023-08-20T00:34:29;22.60;99.90
14140;DHT22;7150;53.514;9.988;2023-08-20T00:36:54;22.60;99.90
14140;DHT22;7150;53.514;9.988;2023-08-20T00:39:20;22.60;99.90
14140;DHT22;7150;53.514;9.988;2023-08-20T00:41:45;22.50;99.90
14140;DHT22;7150;53.514;9.988;2023-08-20T00:44:11;22.50;99.90
14140;DHT22;7150;53.514;9.988;2023-08-20T00:46:36;22.50;99.90
14140;DHT22;7150;53.514;9.988;2023-08-20T00:49:02;22.50;99.90
14140;DHT22;7150;53.514;9.988;2023-08-20T00:51:28;22.50;99.90
14140;DHT22;7150;53.514;9.988;2023-08-20T00:53:54;22.30;99.90
14140;DHT22;7150;53.514;9.988;2023-08-20T00:56:20;22.50;99.90
14140;DHT22;7150;53.514;9.988;2023-08-20T00:58:45;22.50;99.90
14140;DHT22;7150;53.514;9.988;2023-08-20T01:01:11;22.50;99.90
14140;DHT22;7150;53.514;9.988;2023-08-20T01:03:36;22.50;99.90
14140;DHT22;7150;53.514;9.988;2023-08-20T01:06:46;22.40;99.90
14140;DHT22;7150;53.514;9.988;2023-08-20T01:11:49;22.40;99.90
14140;DHT22;7150;53.514;9.988;2023-08-20T01:14:17;22.40;99.90
14140;DHT22;7150;53.514;9.988;2023-08-20T01:16:44;22.40;99.90
14140;DHT22;7150;53.514;9.988;2023-08-20T01:19:15;22.40;99.90
14140;DHT22;7150;53.514;9.988;2023-08-20T01:24:44;22.40;99.90
14140;DHT22;7150;53.514;9.988;2023-08-20T01:27:28;22.30;99.90
14140;DHT22;7150;53.514;9.988;2023-08-20T01:29:57;22.30;99.90
14140;DHT22;7150;53.514;9.988;2023-08-20T01:32:24;22.20;99.90
14140;DHT22;7150;53.514;9.988;2023-08-20T01:34:49;22.20;99.90
14140;DHT22;7150;53.514;9.988;2023-08-20T01:37:15;22.20;99.90
14140;DHT22;7150;53.514;9.988;2023-08-20T01:39:41;22.20;99.90
14140;DHT22;7150;53.514;9.988;2023-08-20T01:42:07;22.20;99.90
14140;DHT22;7150;53.514;9.988;2023-08-20T01:44:32;22.20;99.90
14140;DHT22;7150;53.514;9.988;2023-08-20T01:46:58;22.10;99.90
14140;DHT22;7150;53.514;9.988;2023-08-20T01:49:23;22.10;99.90
14140;DHT22;7150;53.514;9.988;2023-08-20T01:51:49;22.10;99.90
14140;DHT22;7150;53.514;9.988;2023-08-20T01:54:14;22.00;99.90
14140;DHT22;7150;53.514;9.988;2023-08-20T01:56:40;22.00;99.90
14140;DHT22;7150;53.514;9.988;2023-08-20T01:59:06;22.00;99.90
14140;DHT22;7150;53.514;9.988;2023-08-20T02:01:31;22.00;99.90
14140;DHT22;7150;53.514;9.988;2023-08-20T02:03:57;22.00;99.90
14140;DHT22;7150;53.514;9.988;2023-08-20T02:06:22;22.10;99.90
14140;DHT22;7150;53.514;9.988;2023-08-20T02:08:47;22.00;99.90
14140;DHT22;7150;53.514;9.988;2023-08-20T02:11:13;22.00;99.90
14140;DHT22;7150;53.514;9.988;2023-08-20T02:13:38;21.90;99.90
14140;DHT22;7150;53.514;9.988;2023-08-20T02:16:04;22.00;99.90
14140;DHT22;7150;53.514;9.988;2023-08-20T02:18:30;21.90;99.90
14140;DHT22;7150;53.514;9.988;2023-08-20T02:20:57;21.90;99.90
14140;DHT22;7150;53.514;9.988;2023-08-20T02:23:23;21.90;99.90
14140;DHT22;7150;53.514;9.988;2023-08-20T02:25:48;21.90;99.90
14140;DHT22;7150;53.514;9.988;2023-08-20T02:28:14;21.90;99.90
14140;DHT22;7150;53.514;9.988;2023-08-20T02:30:44;21.90;99.90
14140;DHT22;7150;53.514;9.988;2023-08-20T02:33:10;21.90;99.90
14140;DHT22;7150;53.514;9.988;2023-08-20T02:35:37;21.90;99.90
14140;DHT22;7150;53.514;9.988;2023-08-20T02:38:02;21.80;99.90
14140;DHT22;7150;53.514;9.988;2023-08-20T02:40:28;21.90;99.90
14140;DHT22;7150;53.514;9.988;2023-08-20T02:42:53;21.80;99.90
14140;DHT22;7150;53.514;9.988;2023-08-20T02:45:19;21.80;99.90
14140;DHT22;7150;53.514;9.988;2023-08-20T02:47:44;21.80;99.90
14140;DHT22;7150;53.514;9.988;2023-08-20T02:50:10;21.80;99.90
14140;DHT22;7150;53.514;9.988;2023-08-20T02:52:36;21.80;99.90
14140;DHT22;7150;53.514;9.988;2023-08-20T02:55:02;21.80;99.90
14140;DHT22;7150;53.514;9.988;2023-08-20T02:57:30;21.80;99.90
14140;DHT22;7150;53.514;9.988;2023-08-20T02:59:55;21.70;99.90
14140;DHT22;7150;53.514;9.988;2023-08-20T03:02:21;21.70;99.90
14140;DHT22;7150;53.514;9.988;2023-08-20T03:04:47;21.70;99.90
14140;DHT22;7150;53.514;9.988;2023-08-20T03:07:12;21.70;99.90
14140;DHT22;7150;53.514;9.988;2023-08-20T03:09:37;21.70;99.90
14140;DHT22;7150;53.514;9.988;2023-08-20T03:12:03;21.60;99.90
14140;DHT22;7150;53.514;9.988;2023-08-20T03:14:29;21.70;99.90
14140;DHT22;7150;53.514;9.988;2023-08-20T03:16:54;21.70;99.90
14140;DHT22;7150;53.514;9.988;2023-08-20T03:19:20;21.70;99.90
14140;DHT22;7150;53.514;9.988;2023-08-20T03:21:45;21.70;99.90
14140;DHT22;7150;53.514;9.988;2023-08-20T03:24:10;21.70;99.90
14140;DHT22;7150;53.514;9.988;2023-08-20T03:26:36;21.70;99.90
14140;DHT22;7150;53.514;9.988;2023-08-20T03:29:01;21.70;99.90
14140;DHT22;7150;53.514;9.988;2023-08-20T03:31:28;21.60;99.90
14140;DHT22;7150;53.514;9.988;2023-08-20T03:33:54;21.60;99.90
14140;DHT22;7150;53.514;9.988;2023-08-20T03:36:19;21.60;99.90
14140;DHT22;7150;53.514;9.988;2023-08-20T03:38:45;21.60;99.90
14140;DHT22;7150;53.514;9.988;2023-08-20T03:41:10;21.60;99.90
14140;DHT22;7150;53.514;9.988;2023-08-20T03:43:36;21.60;99.90
14140;DHT22;7150;53.514;9.988;2023-08-20T03:46:02;21.60;99.90
14140;DHT22;7150;53.514;9.988;2023-08-20T03:48:28;21.60;99.90
14140;DHT22;7150;53.514;9.988;2023-08-20T03:50:53;21.60;99.90
14140;DHT22;7150;53.514;9.988;2023-08-20T03:53:19;21.50;99.90
14140;DHT22;7150;53.514;9.988;2023-08-20T03:55:48;21.60;99.90
14140;DHT22;7150;53.514;9.988;2023-08-20T03:58:14;21.50;99.90
14140;DHT22;7150;53.514;9.988;2023-08-20T04:00:40;21.50;99.90
14140;DHT22;7150;53.514;9.988;2023-08-20T04:03:06;21.50;99.90
14140;DHT22;7150;53.514;9.988;2023-08-20T04:05:36;21.50;99.90
14140;DHT22;7150;53.514;9.988;2023-08-20T04:08:03;21.60;99.90
14140;DHT22;7150;53.514;9.988;2023-08-20T04:10:28;21.50;99.90
14140;DHT22;7150;53.514;9.988;2023-08-20T04:12:54;21.50;99.90
14140;DHT22;7150;53.514;9.988;2023-08-20T04:15:19;21.50;99.90
14140;DHT22;7150;53.514;9.988;2023-08-20T04:17:45;21.50;99.90
14140;DHT22;7150;53.514;9.988;2023-08-20T04:20:10;21.50;99.90
14140;DHT22;7150;53.514;9.988;2023-08-20T04:22:37;21.50;99.90
14140;DHT22;7150;53.514;9.988;2023-08-20T04:25:03;21.40;99.90
14140;DHT22;7150;53.514;9.988;2023-08-20T04:27:28;21.40;99.90
14140;DHT22;7150;53.514;9.988;2023-08-20T04:29:54;21.50;99.90
14140;DHT22;7150;53.514;9.988;2023-08-20T04:32:20;21.40;99.90
14140;DHT22;7150;53.514;9.988;2023-08-20T04:34:45;21.50;99.90
14140;DHT22;7150;53.514;9.988;2023-08-20T04:37:13;21.40;99.90
14140;DHT22;7150;53.514;9.988;2023-08-20T04:39:38;21.40;99.90
14140;DHT22;7150;53.514;9.988;2023-08-20T04:42:04;21.40;99.90
14140;DHT22;7150;53.514;9.988;2023-08-20T04:44:29;21.40;99.90
14140;DHT22;7150;53.514;9.988;2023-08-20T04:46:55;21.40;99.90
14140;DHT22;7150;53.514;9.988;2023-08-20T04:49:21;21.30;99.90
14140;DHT22;7150;53.514;9.988;2023-08-20T04:51:46;21.30;99.90
14140;DHT22;7150;53.514;9.988;2023-08-20T04:54:11;21.30;99.90
14140;DHT22;7150;53.514;9.988;2023-08-20T04:56:37;21.30;99.90
14140;DHT22;7150;53.514;9.988;2023-08-20T04:59:03;21.30;99.90
14140;DHT22;7150;53.514;9.988;2023-08-20T05:01:28;21.30;99.90
14140;DHT22;7150;53.514;9.988;2023-08-20T05:03:53;21.30;99.90
14140;DHT22;7150;53.514;9.988;2023-08-20T05:06:19;21.30;99.90
14140;DHT22;7150;53.514;9.988;2023-08-20T05:08:45;21.30;99.90
14140;DHT22;7150;53.514;9.988;2023-08-20T05:11:10;21.30;99.90
14140;DHT22;7150;53.514;9.988;2023-08-20T05:13:35;21.30;99.90
14140;DHT22;7150;53.514;9.988;2023-08-20T05:16:01;21.30;99.90
14140;DHT22;7150;53.514;9.988;2023-08-20T05:18:27;21.30;99.90
14140;DHT22;7150;53.514;9.988;2023-08-20T05:20:52;21.30;99.90
14140;DHT22;7150;53.514;9.988;2023-08-20T05:23:18;21.20;99.90
14140;DHT22;7150;53.514;9.988;2023-08-20T05:25:43;21.30;99.90
14140;DHT22;7150;53.514;9.988;2023-08-20T05:28:09;21.30;99.90
14140;DHT22;7150;53.514;9.988;2023-08-20T05:30:34;21.30;99.90
14140;DHT22;7150;53.514;9.988;2023-08-20T05:33:00;21.30;99.90
14140;DHT22;7150;53.514;9.988;2023-08-20T05:35:25;21.20;99.90
14140;DHT22;7150;53.514;9.988;2023-08-20T05:37:51;21.20;99.90
14140;DHT22;7150;53.514;9.988;2023-08-20T05:40:16;21.20;99.90
14140;DHT22;7150;53.514;9.988;2023-08-20T05:42:42;21.20;99.90
14140;DHT22;7150;53.514;9.988;2023-08-20T05:45:07;21.30;99.90
14140;DHT22;7150;53.514;9.988;2023-08-20T05:47:33;21.30;99.90
14140;DHT22;7150;53.514;9.988;2023-08-20T05:49:58;21.30;99.90
14140;DHT22;7150;53.514;9.988;2023-08-20T05:52:24;21.30;99.90
14140;DHT22;7150;53.514;9.988;2023-08-20T05:54:49;21.30;99.90
14140;DHT22;7150;53.514;9.988;2023-08-20T05:57:15;21.30;99.90
14140;DHT22;7150;53.514;9.988;2023-08-20T05:59:40;21.30;99.90
14140;DHT22;7150;53.514;9.988;2023-08-20T06:02:06;21.30;99.90
14140;DHT22;7150;53.514;9.988;2023-08-20T06:04:31;21.30;99.90
14140;DHT22;7150;53.514;9.988;2023-08-20T06:06:57;21.30;99.90
14140;DHT22;7150;53.514;9.988;2023-08-20T06:09:22;21.40;99.90
14140;DHT22;7150;53.514;9.988;2023-08-20T06:11:48;21.30;99.90
14140;DHT22;7150;53.514;9.988;2023-08-20T06:14:14;21.30;99.90
14140;DHT22;7150;53.514;9.988;2023-08-20T06:16:40;21.30;99.90
14140;DHT22;7150;53.514;9.988;2023-08-20T06:19:05;21.30;99.90
14140;DHT22;7150;53.514;9.988;2023-08-20T06:21:31;21.30;99.90
14140;DHT22;7150;53.514;9.988;2023-08-20T06:23:56;21.30;99.90
14140;DHT22;7150;53.514;9.988;2023-08-20T06:26:22;21.30;99.90
14140;DHT22;7150;53.514;9.988;2023-08-20T06:28:47;21.30;99.90
14140;DHT22;7150;53.514;9.988;2023-08-20T06:31:12;21.40;99.90
14140;DHT22;7150;53.514;9.988;2023-08-20T06:33:38;21.40;99.90
14140;DHT22;7150;53.514;9.988;2023-08-20T06:36:04;21.40;99.90
14140;DHT22;7150;53.514;9.988;2023-08-20T06:38:29;21.40;99.90
14140;DHT22;7150;53.514;9.988;2023-08-20T06:40:55;21.40;99.90
14140;DHT22;7150;53.514;9.988;2023-08-20T06:43:21;21.30;99.90
14140;DHT22;7150;53.514;9.988;2023-08-20T06:45:46;21.40;99.90
14140;DHT22;7150;53.514;9.988;2023-08-20T06:48:12;21.40;99.90
14140;DHT22;7150;53.514;9.988;2023-08-20T06:50:38;21.30;99.90
14140;DHT22;7150;53.514;9.988;2023-08-20T06:53:03;21.40;99.90
14140;DHT22;7150;53.514;9.988;2023-08-20T06:55:29;21.30;99.90
14140;DHT22;7150;53.514;9.988;2023-08-20T06:57:54;21.30;99.90
14140;DHT22;7150;53.514;9.988;2023-08-20T07:00:20;21.30;99.90
14140;DHT22;7150;53.514;9.988;2023-08-20T07:02:45;21.30;99.90
14140;DHT22;7150;53.514;9.988;2023-08-20T07:05:11;21.30;99.90
14140;DHT22;7150;53.514;9.988;2023-08-20T07:07:36;21.30;99.90
14140;DHT22;7150;53.514;9.988;2023-08-20T07:10:02;21.30;99.90
14140;DHT22;7150;53.514;9.988;2023-08-20T07:12:28;21.40;99.90
14140;DHT22;7150;53.514;9.988;2023-08-20T07:14:54;21.40;99.90
14140;DHT22;7150;53.514;9.988;2023-08-20T07:17:19;21.40;99.90
14140;DHT22;7150;53.514;9.988;2023-08-20T07:19:45;21.40;99.90
14140;DHT22;7150;53.514;9.988;2023-08-20T07:22:10;21.40;99.90
14140;DHT22;7150;53.514;9.988;2023-08-20T07:24:36;21.40;99.90
14140;DHT22;7150;53.514;9.988;2023-08-20T07:27:02;21.40;99.90
14140;DHT22;7150;53.514;9.988;2023-08-20T07:29:30;21.50;99.90
14140;DHT22;7150;53.514;9.988;2023-08-20T07:31:58;21.50;99.90
14140;DHT22;7150;53.514;9.988;2023-08-20T07:34:28;21.60;99.90
14140;DHT22;7150;53.514;9.988;2023-08-20T07:36:53;21.60;99.90
14140;DHT22;7150;53.514;9.988;2023-08-20T07:39:19;21.60;99.90
14140;DHT22;7150;53.514;9.988;2023-08-20T07:41:44;21.70;99.90
14140;DHT22;7150;53.514;9.988;2023-08-20T07:44:10;21.70;99.90
14140;DHT22;7150;53.514;9.988;2023-08-20T07:46:35;21.70;99.90
14140;DHT22;7150;53.514;9.988;2023-08-20T07:49:01;21.70;99.90
14140;DHT22;7150;53.514;9.988;2023-08-20T07:51:26;21.70;99.90
14140;DHT22;7150;53.514;9.988;2023-08-20T07:53:51;21.70;99.90
14140;DHT22;7150;53.514;9.988;2023-08-20T07:56:17;21.70;99.90
14140;DHT22;7150;53.514;9.988;2023-08-20T07:58:43;21.70;99.90
14140;DHT22;7150;53.514;9.988;2023-08-20T08:01:08;21.70;99.90
14140;DHT22;7150;53.514;9.988;2023-08-20T08:03:34;21.80;99.90
14140;DHT22;7150;53.514;9.988;2023-08-20T08:05:59;21.80;99.90
14140;DHT22;7150;53.514;9.988;2023-08-20T08:08:25;21.80;99.90
14140;DHT22;7150;53.514;9.988;2023-08-20T08:10:50;21.80;99.90
14140;DHT22;7150;53.514;9.988;2023-08-20T08:13:22;21.90;99.90
14140;DHT22;7150;53.514;9.988;2023-08-20T08:15:48;22.00;99.90
14140;DHT22;7150;53.514;9.988;2023-08-20T08:18:14;21.90;99.90
14140;DHT22;7150;53.514;9.988;2023-08-20T08:20:40;22.00;99.90
14140;DHT22;7150;53.514;9.988;2023-08-20T08:23:06;21.90;99.90
14140;DHT22;7150;53.514;9.988;2023-08-20T08:25:31;22.00;99.90
14140;DHT22;7150;53.514;9.988;2023-08-20T08:27:57;22.10;99.90
14140;DHT22;7150;53.514;9.988;2023-08-20T08:30:22;22.10;99.90
14140;DHT22;7150;53.514;9.988;2023-08-20T08:32:48;22.10;99.90
14140;DHT22;7150;53.514;9.988;2023-08-20T08:35:13;22.10;99.90
14140;DHT22;7150;53.514;9.988;2023-08-20T08:37:39;22.10;99.90
14140;DHT22;7150;53.514;9.988;2023-08-20T08:40:05;21.90;99.90
14140;DHT22;7150;53.514;9.988;2023-08-20T08:42:32;22.00;99.90
14140;DHT22;7150;53.514;9.988;2023-08-20T08:44:59;22.10;99.90
14140;DHT22;7150;53.514;9.988;2023-08-20T08:47:25;22.20;99.90
14140;DHT22;7150;53.514;9.988;2023-08-20T08:49:52;22.10;99.90
14140;DHT22;7150;53.514;9.988;2023-08-20T08:52:21;22.20;99.90
14140;DHT22;7150;53.514;9.988;2023-08-20T08:54:48;22.10;99.90
14140;DHT22;7150;53.514;9.988;2023-08-20T08:57:14;22.20;99.90
14140;DHT22;7150;53.514;9.988;2023-08-20T08:59:41;22.20;99.90
14140;DHT22;7150;53.514;9.988;2023-08-20T09:02:08;22.30;99.90
14140;DHT22;7150;53.514;9.988;2023-08-20T09:04:38;22.20;99.90
14140;DHT22;7150;53.514;9.988;2023-08-20T09:07:03;22.30;99.90
14140;DHT22;7150;53.514;9.988;2023-08-20T09:09:29;22.40;99.90
14140;DHT22;7150;53.514;9.988;2023-08-20T09:11:55;22.40;99.90
14140;DHT22;7150;53.514;9.988;2023-08-20T09:14:28;22.40;99.90
14140;DHT22;7150;53.514;9.988;2023-08-20T09:16:55;22.50;99.90
14140;DHT22;7150;53.514;9.988;2023-08-20T09:19:21;22.50;99.90
14140;DHT22;7150;53.514;9.988;2023-08-20T09:21:47;22.50;99.90
14140;DHT22;7150;53.514;9.988;2023-08-20T09:24:13;22.50;99.90
14140;DHT22;7150;53.514;9.988;2023-08-20T09:26:39;22.50;99.90
14140;DHT22;7150;53.514;9.988;2023-08-20T09:29:04;22.50;99.90
14140;DHT22;7150;53.514;9.988;2023-08-20T09:31:39;22.50;99.90
14140;DHT22;7150;53.514;9.988;2023-08-20T09:34:05;22.60;99.90
14140;DHT22;7150;53.514;9.988;2023-08-20T09:36:32;22.60;99.90
14140;DHT22;7150;53.514;9.988;2023-08-20T09:38:58;22.60;99.90
14140;DHT22;7150;53.514;9.988;2023-08-20T09:41:23;22.60;99.90
14140;DHT22;7150;53.514;9.988;2023-08-20T09:43:54;22.70;99.90
14140;DHT22;7150;53.514;9.988;2023-08-20T09:46:27;22.70;99.90
14140;DHT22;7150;53.514;9.988;2023-08-20T09:48:55;22.80;99.90
14140;DHT22;7150;53.514;9.988;2023-08-20T09:51:26;22.80;99.90
14140;DHT22;7150;53.514;9.988;2023-08-20T09:54:15;22.80;99.90
14140;DHT22;7150;53.514;9.988;2023-08-20T09:56:46;22.90;99.90
14140;DHT22;7150;53.514;9.988;2023-08-20T09:59:16;22.80;99.90
14140;DHT22;7150;53.514;9.988;2023-08-20T10:01:42;22.80;99.90
14140;DHT22;7150;53.514;9.988;2023-08-20T10:04:09;22.80;99.90
14140;DHT22;7150;53.514;9.988;2023-08-20T10:06:35;22.80;99.90
14140;DHT22;7150;53.514;9.988;2023-08-20T10:09:02;22.90;99.90
14140;DHT22;7150;53.514;9.988;2023-08-20T10:11:28;23.00;99.90
14140;DHT22;7150;53.514;9.988;2023-08-20T10:13:54;23.00;99.90
14140;DHT22;7150;53.514;9.988;2023-08-20T10:16:20;23.00;99.90
14140;DHT22;7150;53.514;9.988;2023-08-20T10:18:47;23.00;99.90
14140;DHT22;7150;53.514;9.988;2023-08-20T10:21:13;23.00;99.90
14140;DHT22;7150;53.514;9.988;2023-08-20T10:23:40;23.10;99.90
14140;DHT22;7150;53.514;9.988;2023-08-20T10:26:08;23.20;99.90
14140;DHT22;7150;53.514;9.988;2023-08-20T10:28:34;23.30;99.90
14140;DHT22;7150;53.514;9.988;2023-08-20T10:33:50;23.20;99.90
14140;DHT22;7150;53.514;9.988;2023-08-20T10:36:18;23.20;99.90
14140;DHT22;7150;53.514;9.988;2023-08-20T10:38:48;23.30;99.90
14140;DHT22;7150;53.514;9.988;2023-08-20T10:41:15;23.30;99.90
14140;DHT22;7150;53.514;9.988;2023-08-20T10:43:48;23.40;99.90
14140;DHT22;7150;53.514;9.988;2023-08-20T10:46:18;23.50;99.90
14140;DHT22;7150;53.514;9.988;2023-08-20T10:51:26;23.50;99.90
14140;DHT22;7150;53.514;9.988;2023-08-20T10:59:20;23.70;99.90
14140;DHT22;7150;53.514;9.988;2023-08-20T11:01:48;23.70;99.90
14140;DHT22;7150;53.514;9.988;2023-08-20T11:04:15;23.70;99.90
14140;DHT22;7150;53.514;9.988;2023-08-20T11:06:41;23.70;99.90
14140;DHT22;7150;53.514;9.988;2023-08-20T11:09:06;23.80;99.90
14140;DHT22;7150;53.514;9.988;2023-08-20T11:11:32;23.70;99.90
14140;DHT22;7150;53.514;9.988;2023-08-20T11:14:05;23.80;99.90
14140;DHT22;7150;53.514;9.988;2023-08-20T11:16:31;23.80;99.90
14140;DHT22;7150;53.514;9.988;2023-08-20T11:18:57;23.80;99.90
14140;DHT22;7150;53.514;9.988;2023-08-20T11:21:23;23.90;99.90
14140;DHT22;7150;53.514;9.988;2023-08-20T11:23:48;23.90;99.90
14140;DHT22;7150;53.514;9.988;2023-08-20T11:26:14;23.90;99.90
14140;DHT22;7150;53.514;9.988;2023-08-20T11:28:45;24.00;99.90
14140;DHT22;7150;53.514;9.988;2023-08-20T11:31:11;24.00;99.90
14140;DHT22;7150;53.514;9.988;2023-08-20T11:33:37;24.00;99.90
14140;DHT22;7150;53.514;9.988;2023-08-20T11:36:04;24.10;99.90
14140;DHT22;7150;53.514;9.988;2023-08-20T11:38:30;24.10;99.90
14140;DHT22;7150;53.514;9.988;2023-08-20T11:40:57;24.20;99.90
14140;DHT22;7150;53.514;9.988;2023-08-20T11:43:26;24.20;99.90
14140;DHT22;7150;53.514;9.988;2023-08-20T11:45:52;24.20;99.90
14140;DHT22;7150;53.514;9.988;2023-08-20T11:48:19;24.20;99.90
14140;DHT22;7150;53.514;9.988;2023-08-20T11:50:46;24.20;99.90
14140;DHT22;7150;53.514;9.988;2023-08-20T11:53:12;24.20;99.90
14140;DHT22;7150;53.514;9.988;2023-08-20T11:55:39;24.30;99.90
14140;DHT22;7150;53.514;9.988;2023-08-20T11:58:09;24.40;99.90
14140;DHT22;7150;53.514;9.988;2023-08-20T12:00:36;24.40;99.90
14140;DHT22;7150;53.514;9.988;2023-08-20T12:03:02;24.40;99.90
14140;DHT22;7150;53.514;9.988;2023-08-20T12:05:29;24.40;99.90
14140;DHT22;7150;53.514;9.988;2023-08-20T12:08:00;24.50;99.90
14140;DHT22;7150;53.514;9.988;2023-08-20T12:10:27;24.50;99.90
14140;DHT22;7150;53.514;9.988;2023-08-20T12:12:54;24.60;99.90
14140;DHT22;7150;53.514;9.988;2023-08-20T12:15:22;24.60;99.90
14140;DHT22;7150;53.514;9.988;2023-08-20T12:18:00;24.60;99.90
14140;DHT22;7150;53.514;9.988;2023-08-20T12:20:30;24.80;99.90
14140;DHT22;7150;53.514;9.988;2023-08-20T12:23:05;24.80;99.90
14140;DHT22;7150;53.514;9.988;2023-08-20T12:25:32;24.80;99.90
14140;DHT22;7150;53.514;9.988;2023-08-20T12:28:02;24.90;99.90
14140;DHT22;7150;53.514;9.988;2023-08-20T12:30:30;25.00;99.90
14140;DHT22;7150;53.514;9.988;2023-08-20T12:32:55;25.30;99.90
14140;DHT22;7150;53.514;9.988;2023-08-20T12:35:21;25.60;99.90
14140;DHT22;7150;53.514;9.988;2023-08-20T12:37:46;25.80;99.90
14140;DHT22;7150;53.514;9.988;2023-08-20T12:40:12;25.70;99.90
14140;DHT22;7150;53.514;9.988;2023-08-20T12:42:38;25.60;99.90
14140;DHT22;7150;53.514;9.988;2023-08-20T12:45:08;25.60;99.90
14140;DHT22;7150;53.514;9.988;2023-08-20T12:47:35;25.60;99.90
14140;DHT22;7150;53.514;9.988;2023-08-20T12:50:01;25.60;99.90
14140;DHT22;7150;53.514;9.988;2023-08-20T12:52:28;25.70;99.90
14140;DHT22;7150;53.514;9.988;2023-08-20T12:54:53;25.60;99.90
14140;DHT22;7150;53.514;9.988;2023-08-20T12:57:19;25.70;99.90
14140;DHT22;7150;53.514;9.988;2023-08-20T12:59:44;26.00;99.90
14140;DHT22;7150;53.514;9.988;2023-08-20T13:02:10;25.70;99.90
14140;DHT22;7150;53.514;9.988;2023-08-20T13:04:36;25.60;99.90
14140;DHT22;7150;53.514;9.988;2023-08-20T13:07:03;25.60;99.90
14140;DHT22;7150;53.514;9.988;2023-08-20T13:09:29;25.60;99.90
14140;DHT22;7150;53.514;9.988;2023-08-20T13:11:56;25.60;99.90
14140;DHT22;7150;53.514;9.988;2023-08-20T13:14:22;25.60;99.90
14140;DHT22;7150;53.514;9.988;2023-08-20T13:16:48;25.60;99.90
14140;DHT22;7150;53.514;9.988;2023-08-20T13:19:14;25.60;99.90
14140;DHT22;7150;53.514;9.988;2023-08-20T13:21:40;25.60;99.90
14140;DHT22;7150;53.514;9.988;2023-08-20T13:24:06;25.60;99.90
14140;DHT22;7150;53.514;9.988;2023-08-20T13:26:32;25.50;99.90
14140;DHT22;7150;53.514;9.988;2023-08-20T13:28:57;25.60;99.90
14140;DHT22;7150;53.514;9.988;2023-08-20T13:31:23;25.50;99.90
14140;DHT22;7150;53.514;9.988;2023-08-20T13:33:48;25.40;99.90
14140;DHT22;7150;53.514;9.988;2023-08-20T13:36:15;25.40;99.90
14140;DHT22;7150;53.514;9.988;2023-08-20T13:38:41;25.50;99.90
14140;DHT22;7150;53.514;9.988;2023-08-20T13:41:06;25.40;99.90
14140;DHT22;7150;53.514;9.988;2023-08-20T13:43:32;25.50;99.90
14140;DHT22;7150;53.514;9.988;2023-08-20T13:45:57;25.50;99.90
14140;DHT22;7150;53.514;9.988;2023-08-20T13:48:23;25.60;99.90
14140;DHT22;7150;53.514;9.988;2023-08-20T13:50:48;25.60;99.90
14140;DHT22;7150;53.514;9.988;2023-08-20T13:53:14;25.60;99.90
14140;DHT22;7150;53.514;9.988;2023-08-20T13:55:39;25.60;99.90
14140;DHT22;7150;53.514;9.988;2023-08-20T13:58:05;25.60;99.90
14140;DHT22;7150;53.514;9.988;2023-08-20T14:00:30;25.60;99.90
14140;DHT22;7150;53.514;9.988;2023-08-20T14:02:56;25.60;99.90
14140;DHT22;7150;53.514;9.988;2023-08-20T14:05:22;25.60;99.90
14140;DHT22;7150;53.514;9.988;2023-08-20T14:07:48;25.70;99.90
14140;DHT22;7150;53.514;9.988;2023-08-20T14:10:13;25.80;99.90
14140;DHT22;7150;53.514;9.988;2023-08-20T14:12:39;25.80;99.90
14140;DHT22;7150;53.514;9.988;2023-08-20T14:15:04;25.90;99.90
14140;DHT22;7150;53.514;9.988;2023-08-20T14:17:30;26.00;99.90
14140;DHT22;7150;53.514;9.988;2023-08-20T14:19:55;26.10;99.90
14140;DHT22;7150;53.514;9.988;2023-08-20T14:22:21;26.10;99.90
14140;DHT22;7150;53.514;9.988;2023-08-20T14:24:47;26.20;99.90
14140;DHT22;7150;53.514;9.988;2023-08-20T14:27:12;26.20;99.90
14140;DHT22;7150;53.514;9.988;2023-08-20T14:29:38;26.30;99.90
14140;DHT22;7150;53.514;9.988;2023-08-20T14:32:04;26.30;99.90
14140;DHT22;7150;53.514;9.988;2023-08-20T14:34:29;26.50;99.90
14140;DHT22;7150;53.514;9.988;2023-08-20T14:36:55;26.60;99.90
14140;DHT22;7150;53.514;9.988;2023-08-20T14:39:20;26.70;99.90
14140;DHT22;7150;53.514;9.988;2023-08-20T14:41:46;26.80;99.90
14140;DHT22;7150;53.514;9.988;2023-08-20T14:44:11;27.00;99.90
14140;DHT22;7150;53.514;9.988;2023-08-20T14:46:37;27.30;99.90
14140;DHT22;7150;53.514;9.988;2023-08-20T14:49:03;27.40;99.90
14140;DHT22;7150;53.514;9.988;2023-08-20T14:51:29;27.50;99.90
14140;DHT22;7150;53.514;9.988;2023-08-20T14:53:54;27.50;99.90
14140;DHT22;7150;53.514;9.988;2023-08-20T14:56:20;27.60;99.90
14140;DHT22;7150;53.514;9.988;2023-08-20T14:58:45;27.80;99.90
14140;DHT22;7150;53.514;9.988;2023-08-20T15:01:11;28.00;99.90
14140;DHT22;7150;53.514;9.988;2023-08-20T15:03:36;28.30;99.50
14140;DHT22;7150;53.514;9.988;2023-08-20T15:06:02;28.60;98.50
14140;DHT22;7150;53.514;9.988;2023-08-20T15:08:27;29.10;98.60
14140;DHT22;7150;53.514;9.988;2023-08-20T15:11:00;29.40;97.30
14140;DHT22;7150;53.514;9.988;2023-08-20T15:13:27;29.80;96.30
14140;DHT22;7150;53.514;9.988;2023-08-20T15:15:53;30.10;95.90
14140;DHT22;7150;53.514;9.988;2023-08-20T15:18:19;30.30;95.40
14140;DHT22;7150;53.514;9.988;2023-08-20T15:20:45;30.40;95.50
14140;DHT22;7150;53.514;9.988;2023-08-20T15:23:10;30.40;95.40
14140;DHT22;7150;53.514;9.988;2023-08-20T15:25:36;30.10;94.90
14140;DHT22;7150;53.514;9.988;2023-08-20T15:28:01;29.70;95.20
14140;DHT22;7150;53.514;9.988;2023-08-20T15:30:29;29.40;95.30
14140;DHT22;7150;53.514;9.988;2023-08-20T15:32:54;29.30;95.40
14140;DHT22;7150;53.514;9.988;2023-08-20T15:35:20;29.30;96.00
14140;DHT22;7150;53.514;9.988;2023-08-20T15:37:45;29.20;96.40
14140;DHT22;7150;53.514;9.988;2023-08-20T15:40:11;28.90;95.50
14140;DHT22;7150;53.514;9.988;2023-08-20T15:42:37;28.60;95.90
14140;DHT22;7150;53.514;9.988;2023-08-20T15:45:03;28.40;96.30
14140;DHT22;7150;53.514;9.988;2023-08-20T15:47:29;28.00;96.20
14140;DHT22;7150;53.514;9.988;2023-08-20T15:49:54;27.90;96.50
14140;DHT22;7150;53.514;9.988;2023-08-20T15:52:20;27.80;96.90
14140;DHT22;7150;53.514;9.988;2023-08-20T15:54:46;27.60;97.00
14140;DHT22;7150;53.514;9.988;2023-08-20T15:57:11;27.50;97.80